createdAt,value
2024-01-01T00:00:03.328Z,620.00
2024-01-01T00:01:03.324Z,621.00
2024-01-01T00:02:03.370Z,625.00
2024-01-01T00:03:03.324Z,622.00
2024-01-01T00:04:03.372Z,620.00
2024-01-01T00:05:03.391Z,622.00
2024-01-01T00:06:03.429Z,622.00
2024-01-01T00:07:03.329Z,620.00
2024-01-01T00:08:03.598Z,623.00
2024-01-01T00:09:03.344Z,622.00
2024-01-01T00:10:03.340Z,619.00
2024-01-01T00:11:03.376Z,623.00
2024-01-01T00:12:03.360Z,626.00
2024-01-01T00:13:03.341Z,623.00
2024-01-01T00:14:03.459Z,619.00
2024-01-01T00:15:03.323Z,617.00
2024-01-01T00:16:03.371Z,621.00
2024-01-01T00:17:04.215Z,620.00
2024-01-01T00:18:03.591Z,621.00
2024-01-01T00:19:03.455Z,620.00
2024-01-01T00:20:03.486Z,619.00
2024-01-01T00:21:03.427Z,625.00
2024-01-01T00:22:03.479Z,617.00
2024-01-01T00:23:03.547Z,620.00
2024-01-01T00:24:03.586Z,624.00
2024-01-01T00:25:05.546Z,628.00
2024-01-01T00:26:03.588Z,622.00
2024-01-01T00:27:03.592Z,623.00
2024-01-01T00:28:03.910Z,621.00
2024-01-01T00:29:03.693Z,620.00
2024-01-01T00:30:03.784Z,618.00
2024-01-01T00:31:03.575Z,622.00
2024-01-01T00:32:03.619Z,625.00
2024-01-01T00:33:03.646Z,624.00
2024-01-01T00:34:03.669Z,624.00
2024-01-01T00:35:03.622Z,624.00
2024-01-01T00:36:03.636Z,620.00
2024-01-01T00:37:03.620Z,621.00
2024-01-01T00:38:04.814Z,621.00
2024-01-01T00:39:03.624Z,624.00
2024-01-01T00:40:06.535Z,623.00
2024-01-01T00:41:03.687Z,623.00
2024-01-01T00:42:03.599Z,623.00
2024-01-01T00:43:03.612Z,624.00
2024-01-01T00:44:03.606Z,620.00
2024-01-01T00:45:03.698Z,623.00
2024-01-01T00:46:03.596Z,620.00
2024-01-01T00:47:03.658Z,622.00
2024-01-01T00:48:04.209Z,622.00
2024-01-01T00:49:03.716Z,620.00
2024-01-01T00:50:03.704Z,622.00
2024-01-01T00:51:03.624Z,621.00
2024-01-01T00:52:03.639Z,625.00
2024-01-01T00:53:03.704Z,620.00
2024-01-01T00:54:03.623Z,625.00
2024-01-01T00:55:03.638Z,624.00
2024-01-01T00:56:03.647Z,625.00
2024-01-01T00:57:03.603Z,621.00
2024-01-01T00:58:03.946Z,622.00
2024-01-01T00:59:03.646Z,620.00
2024-01-01T01:00:03.618Z,618.00
2024-01-01T01:01:03.637Z,617.00
2024-01-01T01:02:03.678Z,619.00
2024-01-01T01:03:03.697Z,623.00
2024-01-01T01:04:03.630Z,618.00
2024-01-01T01:05:06.729Z,624.00
2024-01-01T01:06:11.285Z,620.00
2024-01-01T01:07:04.640Z,622.00
2024-01-01T01:08:03.981Z,623.00
2024-01-01T01:09:03.667Z,622.00
2024-01-01T01:10:03.633Z,620.00
2024-01-01T01:11:03.702Z,621.00
2024-01-01T01:12:03.646Z,619.00
2024-01-01T01:13:03.649Z,627.00
2024-01-01T01:14:03.675Z,624.00
2024-01-01T01:15:03.661Z,621.00
2024-01-01T01:16:03.672Z,623.00
2024-01-01T01:17:03.646Z,623.00
2024-01-01T01:18:04.278Z,623.00
2024-01-01T01:19:03.809Z,615.00
2024-01-01T01:20:05.818Z,623.00
2024-01-01T01:21:03.669Z,625.00
2024-01-01T01:22:03.650Z,618.00
2024-01-01T01:23:03.702Z,620.00
2024-01-01T01:24:03.682Z,620.00
2024-01-01T01:25:03.657Z,618.00
2024-01-01T01:26:03.763Z,623.00
2024-01-01T01:27:03.682Z,620.00
2024-01-01T01:28:03.848Z,618.00
2024-01-01T01:29:03.773Z,621.00
2024-01-01T01:30:03.758Z,620.00
2024-01-01T01:31:03.684Z,617.00
2024-01-01T01:32:03.767Z,620.00
2024-01-01T01:33:03.747Z,621.00
2024-01-01T01:34:03.680Z,624.00
2024-01-01T01:35:03.882Z,620.00
2024-01-01T01:36:03.699Z,621.00
2024-01-01T01:37:03.710Z,620.00
2024-01-01T01:38:03.953Z,622.00
2024-01-01T01:39:03.716Z,621.00
2024-01-01T01:40:03.676Z,620.00
2024-01-01T01:41:03.758Z,621.00
2024-01-01T01:42:03.685Z,619.00
2024-01-01T01:43:03.680Z,622.00
2024-01-01T01:44:03.803Z,621.00
2024-01-01T01:45:03.692Z,621.00
2024-01-01T01:46:03.694Z,624.00
2024-01-01T01:47:03.736Z,616.00
2024-01-01T01:48:04.121Z,620.00
2024-01-01T01:49:03.725Z,624.00
2024-01-01T01:50:03.701Z,622.00
2024-01-01T01:51:03.745Z,618.00
2024-01-01T01:52:03.715Z,623.00
2024-01-01T01:53:03.791Z,621.00
2024-01-01T01:54:03.713Z,622.00
2024-01-01T01:55:03.733Z,616.00
2024-01-01T01:56:03.775Z,619.00
2024-01-01T01:57:03.687Z,620.00
2024-01-01T01:58:03.885Z,622.00
2024-01-01T01:59:03.763Z,622.00
2024-01-01T02:00:03.718Z,616.00
2024-01-01T02:01:03.766Z,621.00
2024-01-01T02:02:03.747Z,621.00
2024-01-01T02:03:03.760Z,620.00
2024-01-01T02:04:03.705Z,619.00
2024-01-01T02:05:03.809Z,622.00
2024-01-01T02:06:03.814Z,620.00
2024-01-01T02:07:03.728Z,622.00
2024-01-01T02:08:04.189Z,618.00
2024-01-01T02:09:03.735Z,625.00
2024-01-01T02:10:03.726Z,623.00
2024-01-01T02:11:03.792Z,622.00
2024-01-01T02:12:03.785Z,624.00
2024-01-01T02:13:03.776Z,622.00
2024-01-01T02:14:03.768Z,621.00
2024-01-01T02:15:03.749Z,623.00
2024-01-01T02:16:03.726Z,622.00
2024-01-01T02:17:03.842Z,621.00
2024-01-01T02:18:03.759Z,621.00
2024-01-01T02:19:03.850Z,624.00
2024-01-01T02:20:11.446Z,618.00
2024-01-01T02:21:05.123Z,618.00
2024-01-01T02:22:03.752Z,618.00
2024-01-01T02:23:03.856Z,620.00
2024-01-01T02:24:03.871Z,621.00
2024-01-01T02:25:03.772Z,619.00
2024-01-01T02:26:03.802Z,623.00
2024-01-01T02:27:03.786Z,624.00
2024-01-01T02:28:03.915Z,625.00
2024-01-01T02:29:03.841Z,625.00
2024-01-01T02:30:03.880Z,624.00
2024-01-01T02:31:03.770Z,622.00
2024-01-01T02:32:03.806Z,624.00
2024-01-01T02:33:03.840Z,620.00
2024-01-01T02:34:03.771Z,622.00
2024-01-01T02:35:03.846Z,623.00
2024-01-01T02:36:03.821Z,620.00
2024-01-01T02:37:03.958Z,623.00
2024-01-01T02:38:04.187Z,626.00
2024-01-01T02:39:03.976Z,622.00
2024-01-01T02:40:04.041Z,622.00
2024-01-01T02:41:04.072Z,616.00
2024-01-01T02:42:04.081Z,622.00
2024-01-01T02:43:04.119Z,620.00
2024-01-01T02:44:04.247Z,619.00
2024-01-01T02:45:04.194Z,620.00
2024-01-01T02:46:04.234Z,623.00
2024-01-01T02:47:04.283Z,620.00
2024-01-01T02:48:04.673Z,619.00
2024-01-01T02:49:04.408Z,619.00
2024-01-01T02:50:04.409Z,619.00
2024-01-01T02:51:04.426Z,623.00
2024-01-01T02:52:04.473Z,622.00
2024-01-01T02:53:04.638Z,622.00
2024-01-01T02:54:04.555Z,623.00
2024-01-01T02:55:04.558Z,620.00
2024-01-01T02:56:04.670Z,618.00
2024-01-01T02:57:04.641Z,621.00
2024-01-01T02:58:04.961Z,620.00
2024-01-01T02:59:04.721Z,622.00
2024-01-01T03:00:04.774Z,624.00
2024-01-01T03:01:04.856Z,622.00
2024-01-01T03:02:04.826Z,614.00
2024-01-01T03:03:04.911Z,619.00
2024-01-01T03:04:04.896Z,622.00
2024-01-01T03:05:05.006Z,622.00
2024-01-01T03:06:05.022Z,620.00
2024-01-01T03:07:05.112Z,621.00
2024-01-01T03:08:05.484Z,625.00
2024-01-01T03:09:05.109Z,623.00
2024-01-01T03:10:05.137Z,618.00
2024-01-01T03:11:05.211Z,622.00
2024-01-01T03:12:05.266Z,621.00
2024-01-01T03:13:05.275Z,626.00
2024-01-01T03:14:05.333Z,622.00
2024-01-01T03:15:05.385Z,623.00
2024-01-01T03:16:05.384Z,622.00
2024-01-01T03:17:05.432Z,618.00
2024-01-01T03:18:05.781Z,618.00
2024-01-01T03:19:05.601Z,619.00
2024-01-01T03:20:05.563Z,617.00
2024-01-01T03:21:05.570Z,620.00
2024-01-01T03:22:05.562Z,618.00
2024-01-01T03:23:05.622Z,621.00
2024-01-01T03:24:05.648Z,619.00
2024-01-01T03:25:05.674Z,615.00
2024-01-01T03:26:05.731Z,621.00
2024-01-01T03:27:05.712Z,614.00
2024-01-01T03:28:06.019Z,618.00
2024-01-01T03:29:05.797Z,617.00
2024-01-01T03:30:05.868Z,619.00
2024-01-01T03:31:05.921Z,621.00
2024-01-01T03:32:05.931Z,617.00
2024-01-01T03:33:06.014Z,623.00
2024-01-01T03:34:06.059Z,618.00
2024-01-01T03:35:06.140Z,620.00
2024-01-01T03:36:06.049Z,616.00
2024-01-01T03:37:06.104Z,623.00
2024-01-01T03:38:06.584Z,616.00
2024-01-01T03:39:06.124Z,622.00
2024-01-01T03:40:06.155Z,617.00
2024-01-01T03:41:06.255Z,622.00
2024-01-01T03:42:06.287Z,613.00
2024-01-01T03:43:06.284Z,620.00
2024-01-01T03:44:06.340Z,615.00
2024-01-01T03:45:06.338Z,617.00
2024-01-01T03:46:06.391Z,619.00
2024-01-01T03:47:06.429Z,615.00
2024-01-01T03:48:06.772Z,618.00
2024-01-01T03:49:06.538Z,618.00
2024-01-01T03:50:06.596Z,617.00
2024-01-01T03:51:06.547Z,619.00
2024-01-01T03:52:06.596Z,616.00
2024-01-01T03:53:06.640Z,618.00
2024-01-01T03:54:06.633Z,617.00
2024-01-01T03:55:06.708Z,620.00
2024-01-01T03:56:06.823Z,618.00
2024-01-01T03:57:06.764Z,618.00
2024-01-01T03:58:06.973Z,619.00
2024-01-01T03:59:06.898Z,619.00
2024-01-01T04:00:08.882Z,617.00
2024-01-01T04:01:06.947Z,616.00
2024-01-01T04:02:06.948Z,618.00
2024-01-01T04:03:06.946Z,622.00
2024-01-01T04:04:07.006Z,614.00
2024-01-01T04:05:07.041Z,620.00
2024-01-01T04:06:07.098Z,618.00
2024-01-01T04:07:07.074Z,618.00
2024-01-01T04:08:07.389Z,622.00
2024-01-01T04:09:07.182Z,618.00
2024-01-01T04:10:07.235Z,616.00
2024-01-01T04:11:07.269Z,615.00
2024-01-01T04:12:07.267Z,620.00
2024-01-01T04:13:07.323Z,620.00
2024-01-01T04:14:07.416Z,615.00
2024-01-01T04:15:07.473Z,613.00
2024-01-01T04:16:07.450Z,614.00
2024-01-01T04:17:07.508Z,615.00
2024-01-01T04:18:07.740Z,614.00
2024-01-01T04:19:07.564Z,617.00
2024-01-01T04:20:07.594Z,619.00
2024-01-01T04:21:07.596Z,624.00
2024-01-01T04:22:07.621Z,615.00
2024-01-01T04:23:07.734Z,621.00
2024-01-01T04:24:07.667Z,614.00
2024-01-01T04:25:07.685Z,615.00
2024-01-01T04:26:07.775Z,616.00
2024-01-01T04:27:07.743Z,617.00
2024-01-01T04:28:07.974Z,621.00
2024-01-01T04:29:07.875Z,616.00
2024-01-01T04:30:07.943Z,615.00
2024-01-01T04:31:07.897Z,614.00
2024-01-01T04:32:07.946Z,622.00
2024-01-01T04:33:08.154Z,618.00
2024-01-01T04:34:08.024Z,619.00
2024-01-01T04:35:08.201Z,615.00
2024-01-01T04:36:08.107Z,620.00
2024-01-01T04:37:08.118Z,620.00
2024-01-01T04:38:08.397Z,616.00
2024-01-01T04:39:15.879Z,600.00
2024-01-01T04:40:15.843Z,600.00
2024-01-01T04:41:16.010Z,600.00
2024-01-01T04:42:15.858Z,600.00
2024-01-01T04:43:15.863Z,600.00
2024-01-01T04:44:15.905Z,604.00
2024-01-01T04:45:15.876Z,603.00
2024-01-01T04:46:15.849Z,602.00
2024-01-01T04:47:15.915Z,603.00
2024-01-01T04:48:15.998Z,605.00
2024-01-01T04:49:15.949Z,605.00
2024-01-01T04:50:15.923Z,602.00
2024-01-01T04:51:15.906Z,605.00
2024-01-01T04:52:15.900Z,603.00
2024-01-01T04:53:15.936Z,602.00
2024-01-01T04:54:15.889Z,610.00
2024-01-01T04:55:15.881Z,613.00
2024-01-01T04:56:16.007Z,609.00
2024-01-01T04:57:15.886Z,604.00
2024-01-01T04:58:15.868Z,609.00
2024-01-01T04:59:15.920Z,604.00
2024-01-01T05:00:15.892Z,608.00
2024-01-01T05:01:15.917Z,602.00
2024-01-01T05:02:15.975Z,608.00
2024-01-01T05:03:15.933Z,604.00
2024-01-01T05:04:15.908Z,608.00
2024-01-01T05:05:15.912Z,606.00
2024-01-01T05:06:15.948Z,604.00
2024-01-01T05:07:15.899Z,602.00
2024-01-01T05:08:15.931Z,600.00
2024-01-01T05:09:15.890Z,602.00
2024-01-01T05:10:15.886Z,603.00
2024-01-01T05:11:15.908Z,601.00
2024-01-01T05:12:15.898Z,602.00
2024-01-01T05:13:15.932Z,602.00
2024-01-01T05:14:15.933Z,605.00
2024-01-01T05:15:15.944Z,601.00
2024-01-01T05:16:16.044Z,600.00
2024-01-01T05:17:16.164Z,601.00
2024-01-01T05:18:16.163Z,604.00
2024-01-01T05:19:16.338Z,603.00
2024-01-01T05:20:16.430Z,599.00
2024-01-01T05:21:16.379Z,602.00
2024-01-01T05:22:16.417Z,604.00
2024-01-01T05:23:16.556Z,602.00
2024-01-01T05:24:16.486Z,602.00
2024-01-01T05:25:16.558Z,598.00
2024-01-01T05:26:16.710Z,606.00
2024-01-01T05:27:16.687Z,600.00
2024-01-01T05:28:16.702Z,603.00
2024-01-01T05:29:16.867Z,603.00
2024-01-01T05:30:16.866Z,600.00
2024-01-01T05:31:16.870Z,607.00
2024-01-01T05:32:17.122Z,601.00
2024-01-01T05:33:17.099Z,604.00
2024-01-01T05:34:17.051Z,601.00
2024-01-01T05:35:17.167Z,605.00
2024-01-01T05:36:17.128Z,600.00
2024-01-01T05:37:17.149Z,601.00
2024-01-01T05:38:17.301Z,604.00
2024-01-01T05:39:17.286Z,605.00
2024-01-01T05:40:17.338Z,610.00
2024-01-01T05:41:17.416Z,608.00
2024-01-01T05:42:17.398Z,609.00
2024-01-01T05:43:17.471Z,607.00
2024-01-01T05:44:17.590Z,611.00
2024-01-01T05:45:17.543Z,611.00
2024-01-01T05:46:17.578Z,609.00
2024-01-01T05:47:17.691Z,613.00
2024-01-01T05:48:25.700Z,612.00
2024-01-01T05:49:18.772Z,612.00
2024-01-01T05:50:17.847Z,613.00
2024-01-01T05:51:17.737Z,613.00
2024-01-01T05:52:17.718Z,617.00
2024-01-01T05:53:17.768Z,621.00
2024-01-01T05:54:17.709Z,616.00
2024-01-01T05:55:17.715Z,622.00
2024-01-01T05:56:17.748Z,615.00
2024-01-01T05:57:17.729Z,623.00
2024-01-01T05:58:17.736Z,623.00
2024-01-01T05:59:17.790Z,618.00
2024-01-01T06:00:17.769Z,624.00
2024-01-01T06:01:17.823Z,622.00
2024-01-01T06:02:17.920Z,621.00
2024-01-01T06:03:17.959Z,625.00
2024-01-01T06:04:18.008Z,623.00
2024-01-01T06:05:18.089Z,622.00
2024-01-01T06:06:18.090Z,623.00
2024-01-01T06:07:18.152Z,623.00
2024-01-01T06:08:18.259Z,627.00
2024-01-01T06:09:18.281Z,623.00
2024-01-01T06:10:18.343Z,627.00
2024-01-01T06:11:18.472Z,624.00
2024-01-01T06:12:18.484Z,628.00
2024-01-01T06:13:18.504Z,626.00
2024-01-01T06:14:18.579Z,625.00
2024-01-01T06:15:18.600Z,625.00
2024-01-01T06:16:18.691Z,623.00
2024-01-01T06:17:20.375Z,623.00
2024-01-01T06:18:18.915Z,624.00
2024-01-01T06:19:18.995Z,629.00
2024-01-01T06:20:18.960Z,625.00
2024-01-01T06:21:18.941Z,622.00
2024-01-01T06:22:18.972Z,626.00
2024-01-01T06:23:19.122Z,631.00
2024-01-01T06:24:19.094Z,628.00
2024-01-01T06:25:19.304Z,627.00
2024-01-01T06:26:19.369Z,623.00
2024-01-01T06:27:19.251Z,628.00
2024-01-01T06:28:19.290Z,626.00
2024-01-01T06:29:19.526Z,633.00
2024-01-01T06:30:19.477Z,625.00
2024-01-01T06:31:19.487Z,630.00
2024-01-01T06:32:19.561Z,624.00
2024-01-01T06:33:19.743Z,628.00
2024-01-01T06:34:19.652Z,631.00
2024-01-01T06:35:19.757Z,632.00
2024-01-01T06:36:19.769Z,624.00
2024-01-01T06:37:19.827Z,628.00
2024-01-01T06:38:19.940Z,630.00
2024-01-01T06:39:19.946Z,624.00
2024-01-01T06:40:20.052Z,630.00
2024-01-01T06:41:20.127Z,632.00
2024-01-01T06:42:20.160Z,627.00
2024-01-01T06:43:20.149Z,633.00
2024-01-01T06:44:20.247Z,628.00
2024-01-01T06:45:20.255Z,635.00
2024-01-01T06:46:20.350Z,637.00
2024-01-01T06:47:20.525Z,634.00
2024-01-01T06:48:20.608Z,633.00
2024-01-01T06:49:20.543Z,629.00
2024-01-01T06:50:20.692Z,634.00
2024-01-01T06:51:20.629Z,634.00
2024-01-01T06:52:20.699Z,635.00
2024-01-01T06:53:20.779Z,628.00
2024-01-01T06:54:20.816Z,633.00
2024-01-01T06:55:20.851Z,634.00
2024-01-01T06:56:20.940Z,627.00
2024-01-01T06:57:21.230Z,636.00
2024-01-01T06:58:21.068Z,638.00
2024-01-01T06:59:21.140Z,633.00
2024-01-01T07:00:21.203Z,634.00
2024-01-01T07:01:21.274Z,636.00
2024-01-01T07:02:21.446Z,636.00
2024-01-01T07:03:21.374Z,635.00
2024-01-01T07:04:21.393Z,630.00
2024-01-01T07:05:21.489Z,635.00
2024-01-01T07:06:21.555Z,633.00
2024-01-01T07:07:21.574Z,632.00
2024-01-01T07:08:21.749Z,631.00
2024-01-01T07:09:21.699Z,631.00
2024-01-01T07:10:21.742Z,630.00
2024-01-01T07:11:21.826Z,631.00
2024-01-01T07:12:21.914Z,631.00
2024-01-01T07:13:21.922Z,625.00
2024-01-01T07:14:22.026Z,630.00
2024-01-01T07:15:22.082Z,631.00
2024-01-01T07:16:22.137Z,626.00
2024-01-01T07:17:22.340Z,629.00
2024-01-01T07:18:22.375Z,632.00
2024-01-01T07:19:22.669Z,633.00
2024-01-01T07:20:22.468Z,634.00
2024-01-01T07:21:22.433Z,631.00
2024-01-01T07:22:22.486Z,629.00
2024-01-01T07:23:22.633Z,630.00
2024-01-01T07:24:22.599Z,632.00
2024-01-01T07:25:22.667Z,629.00
2024-01-01T07:26:22.798Z,634.00
2024-01-01T07:27:22.746Z,629.00
2024-01-01T07:28:22.832Z,634.00
2024-01-01T07:29:22.917Z,634.00
2024-01-01T07:30:23.027Z,630.00
2024-01-01T07:31:23.002Z,632.00
2024-01-01T07:32:23.317Z,635.00
2024-01-01T07:33:23.321Z,632.00
2024-01-01T07:34:23.195Z,631.00
2024-01-01T07:35:23.293Z,632.00
2024-01-01T07:36:24.529Z,635.00
2024-01-01T07:37:23.419Z,633.00
2024-01-01T07:38:23.459Z,627.00
2024-01-01T07:39:23.473Z,634.00
2024-01-01T07:40:23.573Z,633.00
2024-01-01T07:41:23.662Z,631.00
2024-01-01T07:42:23.667Z,633.00
2024-01-01T07:43:23.782Z,630.00
2024-01-01T07:44:23.872Z,629.00
2024-01-01T07:45:23.902Z,631.00
2024-01-01T07:46:23.950Z,626.00
2024-01-01T07:47:24.153Z,636.00
2024-01-01T07:48:24.113Z,633.00
2024-01-01T07:49:24.158Z,629.00
2024-01-01T07:50:24.254Z,632.00
2024-01-01T07:51:24.276Z,632.00
2024-01-01T07:52:24.334Z,631.00
2024-01-01T07:53:24.449Z,628.00
2024-01-01T07:54:24.428Z,629.00
2024-01-01T07:55:24.497Z,628.00
2024-01-01T07:56:26.051Z,626.00
2024-01-01T07:57:24.610Z,629.00
2024-01-01T07:58:24.684Z,628.00
2024-01-01T07:59:24.744Z,630.00
2024-01-01T08:00:24.792Z,627.00
2024-01-01T08:01:24.899Z,626.00
2024-01-01T08:02:26.935Z,622.00
2024-01-01T08:03:25.069Z,632.00
2024-01-01T08:04:25.069Z,626.00
2024-01-01T08:05:25.302Z,626.00
2024-01-01T08:06:25.184Z,627.00
2024-01-01T08:07:25.250Z,625.00
2024-01-01T08:08:25.324Z,627.00
2024-01-01T08:09:25.391Z,625.00
2024-01-01T08:10:25.406Z,622.00
2024-01-01T08:11:25.512Z,623.00
2024-01-01T08:12:25.536Z,624.00
2024-01-01T08:13:25.594Z,625.00
2024-01-01T08:14:25.758Z,626.00
2024-01-01T08:15:25.803Z,629.00
2024-01-01T08:16:25.801Z,625.00
2024-01-01T08:17:26.027Z,624.00
2024-01-01T08:18:26.009Z,627.00
2024-01-01T08:19:25.974Z,622.00
2024-01-01T08:20:26.304Z,624.00
2024-01-01T08:21:26.092Z,626.00
2024-01-01T08:22:26.135Z,628.00
2024-01-01T08:23:26.262Z,620.00
2024-01-01T08:24:26.284Z,625.00
2024-01-01T08:25:26.342Z,616.00
2024-01-01T08:26:26.385Z,621.00
2024-01-01T08:27:26.432Z,615.00
2024-01-01T08:28:26.460Z,623.00
2024-01-01T08:29:26.585Z,616.00
2024-01-01T08:30:26.610Z,625.00
2024-01-01T08:31:26.661Z,622.00
2024-01-01T08:32:26.756Z,619.00
2024-01-01T08:33:26.745Z,617.00
2024-01-01T08:34:26.748Z,621.00
2024-01-01T08:35:26.858Z,619.00
2024-01-01T08:36:26.868Z,622.00
2024-01-01T08:37:26.908Z,620.00
2024-01-01T08:38:27.051Z,621.00
2024-01-01T08:39:27.011Z,618.00
2024-01-01T08:40:27.066Z,620.00
2024-01-01T08:41:27.184Z,618.00
2024-01-01T08:42:27.180Z,618.00
2024-01-01T08:43:27.232Z,619.00
2024-01-01T08:44:27.322Z,622.00
2024-01-01T08:45:27.316Z,614.00
2024-01-01T08:46:27.398Z,618.00
2024-01-01T08:47:27.542Z,615.00
2024-01-01T08:48:27.683Z,619.00
2024-01-01T08:49:27.606Z,615.00
2024-01-01T08:50:27.613Z,614.00
2024-01-01T08:51:27.622Z,614.00
2024-01-01T08:52:27.674Z,614.00
2024-01-01T08:53:27.818Z,614.00
2024-01-01T08:54:27.767Z,615.00
2024-01-01T08:55:27.800Z,613.00
2024-01-01T08:56:27.863Z,612.00
2024-01-01T08:57:27.857Z,604.00
2024-01-01T08:58:27.921Z,600.00
2024-01-01T08:59:27.919Z,602.00
2024-01-01T09:00:27.949Z,606.00
2024-01-01T09:01:27.934Z,609.00
2024-01-01T09:02:27.930Z,606.00
2024-01-01T09:03:28.052Z,603.00
2024-01-01T09:04:27.984Z,609.00
2024-01-01T09:05:28.260Z,610.00
2024-01-01T09:06:27.999Z,616.00
2024-01-01T09:07:28.040Z,613.00
2024-01-01T09:08:28.102Z,621.00
2024-01-01T09:09:28.121Z,618.00
2024-01-01T09:10:28.166Z,623.00
2024-01-01T09:11:28.263Z,625.00
2024-01-01T09:12:28.280Z,624.00
2024-01-01T09:13:28.389Z,626.00
2024-01-01T09:14:28.519Z,629.00
2024-01-01T09:15:28.493Z,628.00
2024-01-01T09:16:28.599Z,626.00
2024-01-01T09:17:28.817Z,626.00
2024-01-01T09:18:28.990Z,624.00
2024-01-01T09:19:28.815Z,618.00
2024-01-01T09:20:28.900Z,622.00
2024-01-01T09:21:28.920Z,620.00
2024-01-01T09:22:29.009Z,619.00
2024-01-01T09:23:29.094Z,621.00
2024-01-01T09:24:29.073Z,619.00
2024-01-01T09:25:29.189Z,622.00
2024-01-01T09:26:29.248Z,615.00
2024-01-01T09:27:29.308Z,618.00
2024-01-01T09:28:29.362Z,612.00
2024-01-01T09:29:29.432Z,618.00
2024-01-01T09:30:29.593Z,616.00
2024-01-01T09:31:29.604Z,615.00
2024-01-01T09:32:32.542Z,610.00
2024-01-01T09:33:29.769Z,612.00
2024-01-01T09:34:29.639Z,614.00
2024-01-01T09:35:29.734Z,606.00
2024-01-01T09:36:29.649Z,609.00
2024-01-01T09:37:29.625Z,613.00
2024-01-01T09:38:29.720Z,611.00
2024-01-01T09:39:29.669Z,612.00
2024-01-01T09:40:29.655Z,611.00
2024-01-01T09:41:29.751Z,608.00
2024-01-01T09:42:29.665Z,610.00
2024-01-01T09:43:29.636Z,609.00
2024-01-01T09:44:29.752Z,608.00
2024-01-01T09:45:29.648Z,606.00
2024-01-01T09:46:29.685Z,604.00
2024-01-01T09:47:29.758Z,606.00
2024-01-01T09:48:29.746Z,604.00
2024-01-01T09:49:29.767Z,606.00
2024-01-01T09:50:29.689Z,601.00
2024-01-01T09:51:29.687Z,603.00
2024-01-01T09:52:29.670Z,602.00
2024-01-01T09:53:29.717Z,606.00
2024-01-01T09:54:29.644Z,605.00
2024-01-01T09:55:29.653Z,607.00
2024-01-01T09:56:31.337Z,610.00
2024-01-01T09:57:29.633Z,611.00
2024-01-01T09:58:29.625Z,613.00
2024-01-01T09:59:29.671Z,613.00
2024-01-01T10:00:29.761Z,612.00
2024-01-01T10:01:29.671Z,609.00
2024-01-01T10:02:29.687Z,615.00
2024-01-01T10:03:29.670Z,611.00
2024-01-01T10:04:29.672Z,620.00
2024-01-01T10:05:29.727Z,617.00
2024-01-01T10:06:29.703Z,621.00
2024-01-01T10:07:29.681Z,617.00
2024-01-01T10:08:29.718Z,616.00
2024-01-01T10:09:29.670Z,618.00
2024-01-01T10:10:29.704Z,617.00
2024-01-01T10:11:29.800Z,619.00
2024-01-01T10:12:29.678Z,619.00
2024-01-01T10:13:29.660Z,615.00
2024-01-01T10:14:29.692Z,620.00
2024-01-01T10:15:29.651Z,617.00
2024-01-01T10:16:29.723Z,620.00
2024-01-01T10:17:29.964Z,618.00
2024-01-01T10:18:29.811Z,613.00
2024-01-01T10:19:29.826Z,620.00
2024-01-01T10:20:29.709Z,618.00
2024-01-01T10:21:29.665Z,619.00
2024-01-01T10:22:29.677Z,618.00
2024-01-01T10:23:30.016Z,619.00
2024-01-01T10:24:33.046Z,621.00
2024-01-01T10:25:29.656Z,621.00
2024-01-01T10:26:29.687Z,621.00
2024-01-01T10:27:29.686Z,622.00
2024-01-01T10:28:29.670Z,622.00
2024-01-01T10:29:29.803Z,623.00
2024-01-01T10:30:29.731Z,623.00
2024-01-01T10:31:29.693Z,618.00
2024-01-01T10:32:29.747Z,619.00
2024-01-01T10:33:29.813Z,623.00
2024-01-01T10:34:29.695Z,620.00
2024-01-01T10:35:29.844Z,619.00
2024-01-01T10:36:29.711Z,618.00
2024-01-01T10:37:29.686Z,621.00
2024-01-01T10:38:29.788Z,618.00
2024-01-01T10:39:29.679Z,616.00
2024-01-01T10:40:29.686Z,620.00
2024-01-01T10:41:29.701Z,619.00
2024-01-01T10:42:29.716Z,617.00
2024-01-01T10:43:29.728Z,624.00
2024-01-01T10:44:29.773Z,620.00
2024-01-01T10:45:29.729Z,619.00
2024-01-01T10:46:29.702Z,622.00
2024-01-01T10:47:29.780Z,619.00
2024-01-01T10:48:31.305Z,618.00
2024-01-01T10:49:29.704Z,617.00
2024-01-01T10:50:30.166Z,619.00
2024-01-01T10:51:29.695Z,618.00
2024-01-01T10:52:29.726Z,617.00
2024-01-01T10:53:29.872Z,615.00
2024-01-01T10:54:29.716Z,619.00
2024-01-01T10:55:29.712Z,618.00
2024-01-01T10:56:29.755Z,620.00
2024-01-01T10:57:29.710Z,619.00
2024-01-01T10:58:29.694Z,614.00
2024-01-01T10:59:29.700Z,617.00
2024-01-01T11:00:30.026Z,616.00
2024-01-01T11:01:29.715Z,619.00
2024-01-01T11:02:30.096Z,614.00
2024-01-01T11:03:29.781Z,619.00
2024-01-01T11:04:29.730Z,619.00
2024-01-01T11:06:29.709Z,616.00
2024-01-01T11:07:29.721Z,621.00
2024-01-01T11:08:29.921Z,619.00
2024-01-01T11:09:29.705Z,618.00
2024-01-01T11:10:29.801Z,617.00
2024-01-01T11:11:29.795Z,619.00
2024-01-01T11:12:29.858Z,619.00
2024-01-01T11:13:31.327Z,620.00
2024-01-01T11:14:29.934Z,623.00
2024-01-01T11:15:29.952Z,621.00
2024-01-01T11:16:30.024Z,618.00
2024-01-01T11:17:30.202Z,621.00
2024-01-01T11:18:30.384Z,622.00
2024-01-01T11:19:30.297Z,623.00
2024-01-01T11:20:30.312Z,620.00
2024-01-01T11:21:30.342Z,618.00
2024-01-01T11:22:30.468Z,616.00
2024-01-01T11:23:30.482Z,617.00
2024-01-01T11:24:36.666Z,618.00
2024-01-01T11:25:31.571Z,618.00
2024-01-01T11:26:30.543Z,618.00
2024-01-01T11:27:30.619Z,617.00
2024-01-01T11:28:30.577Z,615.00
2024-01-01T11:29:30.606Z,612.00
2024-01-01T11:30:30.585Z,613.00
2024-01-01T11:31:30.584Z,618.00
2024-01-01T11:32:30.647Z,616.00
2024-01-01T11:33:30.690Z,613.00
2024-01-01T11:34:35.242Z,615.00
2024-01-01T11:35:31.658Z,615.00
2024-01-01T11:36:30.607Z,616.00
2024-01-01T11:37:30.588Z,619.00
2024-01-01T11:38:30.651Z,621.00
2024-01-01T11:39:30.588Z,625.00
2024-01-01T11:40:30.578Z,629.00
2024-01-01T11:41:30.603Z,623.00
2024-01-01T11:42:30.587Z,626.00
2024-01-01T11:43:30.634Z,628.00
2024-01-01T11:44:30.721Z,627.00
2024-01-01T11:45:30.711Z,622.00
2024-01-01T11:46:30.768Z,626.00
2024-01-01T11:47:30.885Z,626.00
2024-01-01T11:48:35.276Z,625.00
2024-01-01T11:49:31.954Z,626.00
2024-01-01T11:50:31.039Z,618.00
2024-01-01T11:51:30.911Z,621.00
2024-01-01T11:52:30.909Z,624.00
2024-01-01T11:53:31.002Z,624.00
2024-01-01T11:54:30.934Z,624.00
2024-01-01T11:55:30.936Z,625.00
2024-01-01T11:56:30.954Z,623.00
2024-01-01T11:57:30.944Z,621.00
2024-01-01T11:58:30.984Z,619.00
2024-01-01T11:59:31.165Z,616.00
2024-01-01T12:00:31.214Z,618.00
2024-01-01T12:01:31.239Z,618.00
2024-01-01T12:02:31.329Z,619.00
2024-01-01T12:03:31.356Z,615.00
2024-01-01T12:04:31.426Z,617.00
2024-01-01T12:05:31.603Z,615.00
2024-01-01T12:06:31.560Z,615.00
2024-01-01T12:07:31.626Z,614.00
2024-01-01T12:08:31.666Z,617.00
2024-01-01T12:09:31.800Z,615.00
2024-01-01T12:10:31.845Z,615.00
2024-01-01T12:11:31.882Z,618.00
2024-01-01T12:12:31.946Z,616.00
2024-01-01T12:13:32.160Z,613.00
2024-01-01T12:14:32.071Z,614.00
2024-01-01T12:15:32.171Z,616.00
2024-01-01T12:16:32.266Z,614.00
2024-01-01T12:17:32.298Z,617.00
2024-01-01T12:18:32.458Z,616.00
2024-01-01T12:19:32.410Z,615.00
2024-01-01T12:20:32.486Z,612.00
2024-01-01T12:21:32.514Z,613.00
2024-01-01T12:22:32.583Z,616.00
2024-01-01T12:23:32.662Z,611.00
2024-01-01T12:24:32.726Z,612.00
2024-01-01T12:25:32.756Z,613.00
2024-01-01T12:26:32.803Z,613.00
2024-01-01T12:27:32.893Z,613.00
2024-01-01T12:28:32.917Z,612.00
2024-01-01T12:29:33.001Z,610.00